Terminal Aerodrome Forecast
Issued by NWS Upton, NY

Home | Current Version | Previous Version | Text Only | Print | Product List | Glossary On
Versions: 1 2 3 4 5 6 7 8 9 10 11 12 13 14 15 16 17 18 19 20 21 22 23 24
000
FTUS41 KOKX 021132
TAFBDR
TAF
KBDR 021132Z 0212/0312 VRB03KT P6SM BKN250
     FM021400 17005KT P6SM FEW060 BKN250
     FM021600 21009KT P6SM FEW060 BKN200
     FM030100 VRB03KT P6SM SCT100 BKN200
     FM031000 02005KT P6SM BKN250=

USA.gov is the U.S. government's official web portal to all federal, state and local government web resources and services.